sensor_id;sensor_type;location;lat;lon;timestamp;P1;durP1;ratioP1;P2;durP2;ratioP2
36833;SDS011;48003;52.084;5.224;2024-01-30T00:00:56;15.8;;;9.5;;
36833;SDS011;48003;52.084;5.224;2024-01-30T00:02:33;15.3;;;9.21;;
36833;SDS011;48003;52.084;5.224;2024-01-30T00:04:09;15.2;;;9.31;;
36833;SDS011;48003;52.084;5.224;2024-01-30T00:05:45;15.3;;;10.0;;
36833;SDS011;48003;52.084;5.224;2024-01-30T00:08:57;15.6;;;9.31;;
36833;SDS011;48003;52.084;5.224;2024-01-30T00:10:34;19.0;;;9.5;;
36833;SDS011;48003;52.084;5.224;2024-01-30T00:12:10;14.3;;;9.1;;
36833;SDS011;48003;52.084;5.224;2024-01-30T00:15:22;15.8;;;9.4;;
36833;SDS011;48003;52.084;5.224;2024-01-30T00:16:58;16.0;;;9.5;;
36833;SDS011;48003;52.084;5.224;2024-01-30T00:18:34;13.8;;;9.5;;
36833;SDS011;48003;52.084;5.224;2024-01-30T00:21:47;14.6;;;9.81;;
36833;SDS011;48003;52.084;5.224;2024-01-30T00:23:23;13.7;;;9.31;;
36833;SDS011;48003;52.084;5.224;2024-01-30T00:25:00;15.7;;;9.71;;
36833;SDS011;48003;52.084;5.224;2024-01-30T00:26:36;14.0;;;9.6;;
36833;SDS011;48003;52.084;5.224;2024-01-30T00:29:48;17.3;;;9.81;;
36833;SDS011;48003;52.084;5.224;2024-01-30T00:31:24;14.4;;;9.31;;
36833;SDS011;48003;52.084;5.224;2024-01-30T00:33:00;15.0;;;9.5;;
36833;SDS011;48003;52.084;5.224;2024-01-30T00:36:12;14.5;;;9.4;;
36833;SDS011;48003;52.084;5.224;2024-01-30T00:37:49;14.2;;;9.0;;
36833;SDS011;48003;52.084;5.224;2024-01-30T00:39:25;14.6;;;9.71;;
36833;SDS011;48003;52.084;5.224;2024-01-30T00:42:40;16.2;;;9.1;;
36833;SDS011;48003;52.084;5.224;2024-01-30T00:44:16;13.4;;;9.1;;
36833;SDS011;48003;52.084;5.224;2024-01-30T00:45:52;13.3;;;9.4;;
36833;SDS011;48003;52.084;5.224;2024-01-30T00:49:04;13.3;;;9.4;;
36833;SDS011;48003;52.084;5.224;2024-01-30T00:50:40;13.1;;;8.71;;
36833;SDS011;48003;52.084;5.224;2024-01-30T00:52:17;13.9;;;9.0;;
36833;SDS011;48003;52.084;5.224;2024-01-30T00:53:53;15.9;;;9.9;;
36833;SDS011;48003;52.084;5.224;2024-01-30T00:57:05;14.3;;;9.4;;
36833;SDS011;48003;52.084;5.224;2024-01-30T00:58:41;14.9;;;10.1;;
36833;SDS011;48003;52.084;5.224;2024-01-30T01:00:17;17.3;;;9.6;;
36833;SDS011;48003;52.084;5.224;2024-01-30T01:03:32;14.2;;;9.6;;
36833;SDS011;48003;52.084;5.224;2024-01-30T01:05:09;15.2;;;9.4;;
36833;SDS011;48003;52.084;5.224;2024-01-30T01:06:45;15.4;;;9.6;;
36833;SDS011;48003;52.084;5.224;2024-01-30T01:09:57;14.9;;;9.31;;
36833;SDS011;48003;52.084;5.224;2024-01-30T01:11:33;19.0;;;9.21;;
36833;SDS011;48003;52.084;5.224;2024-01-30T01:13:09;15.5;;;9.31;;
36833;SDS011;48003;52.084;5.224;2024-01-30T01:14:45;17.2;;;9.71;;
36833;SDS011;48003;52.084;5.224;2024-01-30T01:17:57;13.1;;;9.0;;
36833;SDS011;48003;52.084;5.224;2024-01-30T01:19:34;16.2;;;9.81;;
36833;SDS011;48003;52.084;5.224;2024-01-30T01:21:10;15.3;;;9.71;;
36833;SDS011;48003;52.084;5.224;2024-01-30T01:24:22;13.5;;;9.31;;
36833;SDS011;48003;52.084;5.224;2024-01-30T01:26:01;14.3;;;9.4;;
36833;SDS011;48003;52.084;5.224;2024-01-30T01:27:37;12.7;;;9.1;;
36833;SDS011;48003;52.084;5.224;2024-01-30T01:30:49;15.0;;;9.9;;
36833;SDS011;48003;52.084;5.224;2024-01-30T01:32:26;13.2;;;9.71;;
36833;SDS011;48003;52.084;5.224;2024-01-30T01:34:02;15.9;;;9.9;;
36833;SDS011;48003;52.084;5.224;2024-01-30T01:35:38;15.3;;;9.4;;
36833;SDS011;48003;52.084;5.224;2024-01-30T01:38:50;16.4;;;10.21;;
36833;SDS011;48003;52.084;5.224;2024-01-30T01:40:26;15.3;;;9.71;;
36833;SDS011;48003;52.084;5.224;2024-01-30T01:42:03;13.9;;;9.21;;
36833;SDS011;48003;52.084;5.224;2024-01-30T01:45:15;14.2;;;9.1;;
36833;SDS011;48003;52.084;5.224;2024-01-30T01:46:52;14.3;;;8.9;;
36833;SDS011;48003;52.084;5.224;2024-01-30T01:48:29;14.3;;;9.1;;
36833;SDS011;48003;52.084;5.224;2024-01-30T01:51:41;13.6;;;9.81;;
36833;SDS011;48003;52.084;5.224;2024-01-30T01:53:18;14.9;;;9.5;;
36833;SDS011;48003;52.084;5.224;2024-01-30T01:54:54;16.3;;;9.81;;
36833;SDS011;48003;52.084;5.224;2024-01-30T01:58:09;14.4;;;9.31;;
36833;SDS011;48003;52.084;5.224;2024-01-30T01:59:46;15.2;;;9.81;;
36833;SDS011;48003;52.084;5.224;2024-01-30T02:01:23;14.5;;;9.4;;
36833;SDS011;48003;52.084;5.224;2024-01-30T02:03:01;14.4;;;9.0;;
36833;SDS011;48003;52.084;5.224;2024-01-30T02:06:16;13.6;;;8.81;;
36833;SDS011;48003;52.084;5.224;2024-01-30T02:07:53;17.0;;;9.81;;
36833;SDS011;48003;52.084;5.224;2024-01-30T02:09:31;13.1;;;9.1;;
36833;SDS011;48003;52.084;5.224;2024-01-30T02:12:42;12.7;;;9.1;;
36833;SDS011;48003;52.084;5.224;2024-01-30T02:14:19;14.0;;;9.1;;
36833;SDS011;48003;52.084;5.224;2024-01-30T02:15:55;13.7;;;8.81;;
36833;SDS011;48003;52.084;5.224;2024-01-30T02:17:31;14.5;;;9.31;;
36833;SDS011;48003;52.084;5.224;2024-01-30T02:20:43;14.4;;;9.21;;
36833;SDS011;48003;52.084;5.224;2024-01-30T02:22:19;13.0;;;8.5;;
36833;SDS011;48003;52.084;5.224;2024-01-30T02:23:56;13.1;;;8.81;;
36833;SDS011;48003;52.084;5.224;2024-01-30T02:27:15;14.8;;;9.0;;
36833;SDS011;48003;52.084;5.224;2024-01-30T02:28:51;13.9;;;9.1;;
36833;SDS011;48003;52.084;5.224;2024-01-30T02:30:27;16.5;;;9.5;;
36833;SDS011;48003;52.084;5.224;2024-01-30T02:33:40;15.6;;;9.21;;
36833;SDS011;48003;52.084;5.224;2024-01-30T02:35:16;16.7;;;9.9;;
36833;SDS011;48003;52.084;5.224;2024-01-30T02:36:52;14.2;;;9.5;;
36833;SDS011;48003;52.084;5.224;2024-01-30T02:38:28;14.5;;;9.4;;
36833;SDS011;48003;52.084;5.224;2024-01-30T02:41:43;13.6;;;8.9;;
36833;SDS011;48003;52.084;5.224;2024-01-30T02:43:19;13.8;;;9.31;;
36833;SDS011;48003;52.084;5.224;2024-01-30T02:44:55;15.3;;;9.4;;
36833;SDS011;48003;52.084;5.224;2024-01-30T02:48:07;13.6;;;9.4;;
36833;SDS011;48003;52.084;5.224;2024-01-30T02:49:43;17.5;;;9.31;;
36833;SDS011;48003;52.084;5.224;2024-01-30T02:51:19;16.11;;;9.31;;
36833;SDS011;48003;52.084;5.224;2024-01-30T02:54:35;16.11;;;9.31;;
36833;SDS011;48003;52.084;5.224;2024-01-30T02:56:11;14.2;;;9.1;;
36833;SDS011;48003;52.084;5.224;2024-01-30T02:57:47;12.5;;;9.1;;
36833;SDS011;48003;52.084;5.224;2024-01-30T02:59:23;14.0;;;9.21;;
36833;SDS011;48003;52.084;5.224;2024-01-30T03:02:35;14.4;;;9.31;;
36833;SDS011;48003;52.084;5.224;2024-01-30T03:04:12;13.8;;;9.21;;
36833;SDS011;48003;52.084;5.224;2024-01-30T03:05:48;12.8;;;8.9;;
36833;SDS011;48003;52.084;5.224;2024-01-30T03:09:01;14.5;;;9.4;;
36833;SDS011;48003;52.084;5.224;2024-01-30T03:10:37;15.4;;;9.5;;
36833;SDS011;48003;52.084;5.224;2024-01-30T03:12:13;13.6;;;9.31;;
36833;SDS011;48003;52.084;5.224;2024-01-30T03:15:25;13.8;;;9.5;;
36833;SDS011;48003;52.084;5.224;2024-01-30T03:17:01;12.9;;;9.6;;
36833;SDS011;48003;52.084;5.224;2024-01-30T03:18:37;12.6;;;9.81;;
36833;SDS011;48003;52.084;5.224;2024-01-30T03:20:13;14.8;;;10.0;;
36833;SDS011;48003;52.084;5.224;2024-01-30T03:23:26;15.3;;;10.21;;
36833;SDS011;48003;52.084;5.224;2024-01-30T03:25:02;17.3;;;10.5;;
36833;SDS011;48003;52.084;5.224;2024-01-30T03:26:39;13.7;;;10.0;;
36833;SDS011;48003;52.084;5.224;2024-01-30T03:29:51;18.91;;;10.8;;
36833;SDS011;48003;52.084;5.224;2024-01-30T03:31:27;15.4;;;10.4;;
36833;SDS011;48003;52.084;5.224;2024-01-30T03:33:04;16.3;;;10.8;;
36833;SDS011;48003;52.084;5.224;2024-01-30T03:36:16;17.3;;;11.7;;
36833;SDS011;48003;52.084;5.224;2024-01-30T03:37:52;17.91;;;10.9;;
36833;SDS011;48003;52.084;5.224;2024-01-30T03:39:28;17.7;;;11.5;;
36833;SDS011;48003;52.084;5.224;2024-01-30T03:42:43;19.11;;;12.0;;
36833;SDS011;48003;52.084;5.224;2024-01-30T03:44:19;18.0;;;12.5;;
36833;SDS011;48003;52.084;5.224;2024-01-30T03:45:55;19.7;;;12.5;;
36833;SDS011;48003;52.084;5.224;2024-01-30T03:47:31;18.0;;;12.5;;
36833;SDS011;48003;52.084;5.224;2024-01-30T03:50:46;21.7;;;12.6;;
36833;SDS011;48003;52.084;5.224;2024-01-30T03:52:22;19.91;;;12.9;;
36833;SDS011;48003;52.084;5.224;2024-01-30T03:53:58;19.7;;;12.6;;
36833;SDS011;48003;52.084;5.224;2024-01-30T03:57:10;20.8;;;13.3;;
36833;SDS011;48003;52.084;5.224;2024-01-30T03:58:46;19.8;;;12.8;;
36833;SDS011;48003;52.084;5.224;2024-01-30T04:00:22;20.3;;;13.1;;
36833;SDS011;48003;52.084;5.224;2024-01-30T04:03:36;19.7;;;12.3;;
36833;SDS011;48003;52.084;5.224;2024-01-30T04:05:12;21.3;;;12.7;;
36833;SDS011;48003;52.084;5.224;2024-01-30T04:06:48;18.11;;;12.5;;
36833;SDS011;48003;52.084;5.224;2024-01-30T04:08:24;19.5;;;12.2;;
36833;SDS011;48003;52.084;5.224;2024-01-30T04:11:36;22.0;;;12.8;;
36833;SDS011;48003;52.084;5.224;2024-01-30T04:13:12;22.1;;;12.1;;
36833;SDS011;48003;52.084;5.224;2024-01-30T04:14:48;19.11;;;12.1;;
36833;SDS011;48003;52.084;5.224;2024-01-30T04:18:01;18.3;;;12.3;;
36833;SDS011;48003;52.084;5.224;2024-01-30T04:19:37;17.8;;;11.4;;
36833;SDS011;48003;52.084;5.224;2024-01-30T04:21:13;18.5;;;11.7;;
36833;SDS011;48003;52.084;5.224;2024-01-30T04:24:25;17.41;;;11.5;;
36833;SDS011;48003;52.084;5.224;2024-01-30T04:26:01;17.61;;;11.1;;
36833;SDS011;48003;52.084;5.224;2024-01-30T04:27:37;18.3;;;10.9;;
36833;SDS011;48003;52.084;5.224;2024-01-30T04:30:50;18.3;;;10.9;;
36833;SDS011;48003;52.084;5.224;2024-01-30T04:32:26;17.3;;;11.1;;
36833;SDS011;48003;52.084;5.224;2024-01-30T04:34:02;16.8;;;10.9;;
36833;SDS011;48003;52.084;5.224;2024-01-30T04:35:38;15.9;;;10.6;;
36833;SDS011;48003;52.084;5.224;2024-01-30T04:38:50;17.2;;;10.7;;
36833;SDS011;48003;52.084;5.224;2024-01-30T04:40:26;15.6;;;9.81;;
36833;SDS011;48003;52.084;5.224;2024-01-30T04:42:03;15.4;;;10.3;;
36833;SDS011;48003;52.084;5.224;2024-01-30T04:45:16;15.5;;;9.4;;
36833;SDS011;48003;52.084;5.224;2024-01-30T04:46:52;16.0;;;9.81;;
36833;SDS011;48003;52.084;5.224;2024-01-30T04:48:28;14.8;;;9.4;;
36833;SDS011;48003;52.084;5.224;2024-01-30T04:51:41;17.11;;;9.6;;
36833;SDS011;48003;52.084;5.224;2024-01-30T04:53:17;18.0;;;9.9;;
36833;SDS011;48003;52.084;5.224;2024-01-30T04:54:53;14.4;;;9.5;;
36833;SDS011;48003;52.084;5.224;2024-01-30T04:56:30;16.3;;;10.21;;
36833;SDS011;48003;52.084;5.224;2024-01-30T04:59:45;16.3;;;9.9;;
36833;SDS011;48003;52.084;5.224;2024-01-30T05:01:21;15.2;;;9.9;;
36833;SDS011;48003;52.084;5.224;2024-01-30T05:02:57;13.5;;;9.6;;
36833;SDS011;48003;52.084;5.224;2024-01-30T05:06:09;15.4;;;9.6;;
36833;SDS011;48003;52.084;5.224;2024-01-30T05:07:45;13.6;;;9.4;;
36833;SDS011;48003;52.084;5.224;2024-01-30T05:09:22;16.11;;;9.5;;
36833;SDS011;48003;52.084;5.224;2024-01-30T05:12:36;13.4;;;9.1;;
36833;SDS011;48003;52.084;5.224;2024-01-30T05:14:12;14.8;;;9.4;;
36833;SDS011;48003;52.084;5.224;2024-01-30T05:15:48;14.6;;;9.31;;
36833;SDS011;48003;52.084;5.224;2024-01-30T05:17:24;14.1;;;9.5;;
36833;SDS011;48003;52.084;5.224;2024-01-30T05:20:36;14.8;;;9.31;;
36833;SDS011;48003;52.084;5.224;2024-01-30T05:22:13;15.5;;;9.4;;
36833;SDS011;48003;52.084;5.224;2024-01-30T05:23:49;14.2;;;9.1;;
36833;SDS011;48003;52.084;5.224;2024-01-30T05:27:01;15.5;;;8.9;;
36833;SDS011;48003;52.084;5.224;2024-01-30T05:28:37;15.7;;;9.1;;
36833;SDS011;48003;52.084;5.224;2024-01-30T05:30:13;13.2;;;8.5;;
36833;SDS011;48003;52.084;5.224;2024-01-30T05:33:25;13.1;;;9.0;;
36833;SDS011;48003;52.084;5.224;2024-01-30T05:35:02;14.6;;;9.0;;
36833;SDS011;48003;52.084;5.224;2024-01-30T05:36:38;14.7;;;9.0;;
36833;SDS011;48003;52.084;5.224;2024-01-30T05:39:52;13.3;;;8.6;;
36833;SDS011;48003;52.084;5.224;2024-01-30T05:41:28;12.1;;;8.6;;
36833;SDS011;48003;52.084;5.224;2024-01-30T05:43:04;12.0;;;8.6;;
36833;SDS011;48003;52.084;5.224;2024-01-30T05:44:40;14.1;;;8.6;;
36833;SDS011;48003;52.084;5.224;2024-01-30T05:47:52;13.9;;;8.81;;
36833;SDS011;48003;52.084;5.224;2024-01-30T05:49:32;14.1;;;8.6;;
36833;SDS011;48003;52.084;5.224;2024-01-30T05:51:08;13.2;;;8.81;;
36833;SDS011;48003;52.084;5.224;2024-01-30T05:54:20;12.0;;;8.5;;
36833;SDS011;48003;52.084;5.224;2024-01-30T05:55:56;12.2;;;8.4;;
36833;SDS011;48003;52.084;5.224;2024-01-30T05:57:32;11.6;;;7.7;;
36833;SDS011;48003;52.084;5.224;2024-01-30T06:00:44;13.3;;;8.4;;
36833;SDS011;48003;52.084;5.224;2024-01-30T06:02:21;13.2;;;8.1;;
36833;SDS011;48003;52.084;5.224;2024-01-30T06:03:57;12.7;;;8.5;;
36833;SDS011;48003;52.084;5.224;2024-01-30T06:05:33;12.0;;;8.4;;
36833;SDS011;48003;52.084;5.224;2024-01-30T06:08:45;15.2;;;8.5;;
36833;SDS011;48003;52.084;5.224;2024-01-30T06:10:21;13.6;;;8.5;;
36833;SDS011;48003;52.084;5.224;2024-01-30T06:12:00;13.5;;;7.7;;
36833;SDS011;48003;52.084;5.224;2024-01-30T06:15:12;12.5;;;7.3;;
36833;SDS011;48003;52.084;5.224;2024-01-30T06:16:49;13.0;;;8.1;;
36833;SDS011;48003;52.084;5.224;2024-01-30T06:18:25;12.9;;;8.2;;
36833;SDS011;48003;52.084;5.224;2024-01-30T06:21:37;11.7;;;7.9;;
36833;SDS011;48003;52.084;5.224;2024-01-30T06:23:13;12.8;;;7.9;;
36833;SDS011;48003;52.084;5.224;2024-01-30T06:24:49;12.5;;;8.5;;
36833;SDS011;48003;52.084;5.224;2024-01-30T06:26:25;11.7;;;7.4;;
36833;SDS011;48003;52.084;5.224;2024-01-30T06:29:37;11.7;;;7.6;;
36833;SDS011;48003;52.084;5.224;2024-01-30T06:31:14;11.5;;;7.2;;
36833;SDS011;48003;52.084;5.224;2024-01-30T06:32:50;9.9;;;7.3;;
36833;SDS011;48003;52.084;5.224;2024-01-30T06:36:02;13.1;;;7.7;;
36833;SDS011;48003;52.084;5.224;2024-01-30T06:37:38;11.3;;;7.5;;
36833;SDS011;48003;52.084;5.224;2024-01-30T06:39:14;12.7;;;7.4;;
36833;SDS011;48003;52.084;5.224;2024-01-30T06:42:26;11.5;;;7.7;;
36833;SDS011;48003;52.084;5.224;2024-01-30T06:44:02;13.5;;;7.6;;
36833;SDS011;48003;52.084;5.224;2024-01-30T06:45:38;10.6;;;7.6;;
36833;SDS011;48003;52.084;5.224;2024-01-30T06:48:51;15.1;;;7.9;;
36833;SDS011;48003;52.084;5.224;2024-01-30T06:50:27;14.0;;;7.9;;
36833;SDS011;48003;52.084;5.224;2024-01-30T06:52:03;10.8;;;7.1;;
36833;SDS011;48003;52.084;5.224;2024-01-30T06:53:40;11.7;;;7.0;;
36833;SDS011;48003;52.084;5.224;2024-01-30T06:56:53;11.3;;;7.5;;
36833;SDS011;48003;52.084;5.224;2024-01-30T06:58:29;11.3;;;7.5;;
36833;SDS011;48003;52.084;5.224;2024-01-30T07:00:06;10.8;;;7.1;;
36833;SDS011;48003;52.084;5.224;2024-01-30T07:03:18;11.6;;;7.0;;
36833;SDS011;48003;52.084;5.224;2024-01-30T07:04:55;12.9;;;7.2;;
36833;SDS011;48003;52.084;5.224;2024-01-30T07:06:31;14.6;;;7.1;;
36833;SDS011;48003;52.084;5.224;2024-01-30T07:09:43;10.6;;;6.7;;
36833;SDS011;48003;52.084;5.224;2024-01-30T07:11:19;11.9;;;7.9;;
36833;SDS011;48003;52.084;5.224;2024-01-30T07:12:55;11.4;;;7.3;;
36833;SDS011;48003;52.084;5.224;2024-01-30T07:14:31;11.1;;;7.5;;
36833;SDS011;48003;52.084;5.224;2024-01-30T07:17:43;14.0;;;7.6;;
36833;SDS011;48003;52.084;5.224;2024-01-30T07:19:19;11.2;;;7.5;;
36833;SDS011;48003;52.084;5.224;2024-01-30T07:20:56;12.3;;;6.6;;
36833;SDS011;48003;52.084;5.224;2024-01-30T07:24:09;12.0;;;7.0;;
36833;SDS011;48003;52.084;5.224;2024-01-30T07:25:45;13.3;;;7.2;;
36833;SDS011;48003;52.084;5.224;2024-01-30T07:27:21;10.6;;;6.9;;
36833;SDS011;48003;52.084;5.224;2024-01-30T07:30:33;11.7;;;7.4;;
36833;SDS011;48003;52.084;5.224;2024-01-30T07:32:09;11.7;;;6.8;;
36833;SDS011;48003;52.084;5.224;2024-01-30T07:33:46;15.4;;;7.6;;
36833;SDS011;48003;52.084;5.224;2024-01-30T07:36:58;14.3;;;7.2;;
36833;SDS011;48003;52.084;5.224;2024-01-30T07:38:34;11.4;;;7.2;;
36833;SDS011;48003;52.084;5.224;2024-01-30T07:40:10;12.1;;;7.1;;
36833;SDS011;48003;52.084;5.224;2024-01-30T07:41:46;14.6;;;7.3;;
36833;SDS011;48003;52.084;5.224;2024-01-30T07:44:58;12.9;;;7.7;;
36833;SDS011;48003;52.084;5.224;2024-01-30T07:46:34;12.4;;;7.3;;
36833;SDS011;48003;52.084;5.224;2024-01-30T07:48:11;12.0;;;7.0;;
36833;SDS011;48003;52.084;5.224;2024-01-30T07:51:23;14.8;;;7.6;;
36833;SDS011;48003;52.084;5.224;2024-01-30T07:53:00;12.8;;;7.4;;
36833;SDS011;48003;52.084;5.224;2024-01-30T07:54:49;13.4;;;7.5;;
36833;SDS011;48003;52.084;5.224;2024-01-30T07:56:26;13.8;;;7.2;;
36833;SDS011;48003;52.084;5.224;2024-01-30T07:59:38;11.5;;;7.4;;
36833;SDS011;48003;52.084;5.224;2024-01-30T08:01:14;14.0;;;7.2;;
36833;SDS011;48003;52.084;5.224;2024-01-30T08:02:52;14.0;;;7.2;;
36833;SDS011;48003;52.084;5.224;2024-01-30T08:06:05;13.2;;;7.3;;
36833;SDS011;48003;52.084;5.224;2024-01-30T08:07:42;13.5;;;7.7;;
36833;SDS011;48003;52.084;5.224;2024-01-30T08:09:18;12.3;;;6.8;;
36833;SDS011;48003;52.084;5.224;2024-01-30T08:12:30;13.1;;;7.3;;
36833;SDS011;48003;52.084;5.224;2024-01-30T08:14:06;13.1;;;7.7;;
36833;SDS011;48003;52.084;5.224;2024-01-30T08:15:42;11.9;;;7.2;;
36833;SDS011;48003;52.084;5.224;2024-01-30T08:17:18;12.7;;;6.9;;
36833;SDS011;48003;52.084;5.224;2024-01-30T08:20:31;13.7;;;7.2;;
36833;SDS011;48003;52.084;5.224;2024-01-30T08:22:07;13.9;;;7.8;;
36833;SDS011;48003;52.084;5.224;2024-01-30T08:23:43;13.5;;;7.8;;
36833;SDS011;48003;52.084;5.224;2024-01-30T08:26:55;16.11;;;7.8;;
36833;SDS011;48003;52.084;5.224;2024-01-30T08:28:31;14.5;;;7.3;;
36833;SDS011;48003;52.084;5.224;2024-01-30T08:30:07;20.11;;;11.3;;
36833;SDS011;48003;52.084;5.224;2024-01-30T08:33:20;16.11;;;8.5;;
36833;SDS011;48003;52.084;5.224;2024-01-30T08:34:57;16.4;;;7.8;;
36833;SDS011;48003;52.084;5.224;2024-01-30T08:36:33;14.1;;;7.3;;
36833;SDS011;48003;52.084;5.224;2024-01-30T08:39:45;17.41;;;8.2;;
36833;SDS011;48003;52.084;5.224;2024-01-30T08:41:21;14.3;;;8.0;;
36833;SDS011;48003;52.084;5.224;2024-01-30T08:42:57;14.0;;;7.9;;
36833;SDS011;48003;52.084;5.224;2024-01-30T08:44:33;16.0;;;8.1;;
36833;SDS011;48003;52.084;5.224;2024-01-30T08:47:45;15.9;;;8.2;;
36833;SDS011;48003;52.084;5.224;2024-01-30T08:49:21;16.5;;;7.8;;
36833;SDS011;48003;52.084;5.224;2024-01-30T08:50:58;14.3;;;7.9;;
36833;SDS011;48003;52.084;5.224;2024-01-30T08:54:10;15.5;;;7.6;;
36833;SDS011;48003;52.084;5.224;2024-01-30T08:55:46;14.9;;;7.6;;
36833;SDS011;48003;52.084;5.224;2024-01-30T08:57:22;16.3;;;7.9;;
36833;SDS011;48003;52.084;5.224;2024-01-30T09:00:34;17.2;;;7.5;;
36833;SDS011;48003;52.084;5.224;2024-01-30T09:02:09;16.8;;;7.9;;
36833;SDS011;48003;52.084;5.224;2024-01-30T09:03:45;13.7;;;7.4;;
36833;SDS011;48003;52.084;5.224;2024-01-30T09:06:58;15.5;;;7.7;;
36833;SDS011;48003;52.084;5.224;2024-01-30T09:08:34;16.61;;;7.6;;
36833;SDS011;48003;52.084;5.224;2024-01-30T09:10:10;14.8;;;7.5;;
36833;SDS011;48003;52.084;5.224;2024-01-30T09:11:46;12.7;;;7.6;;
36833;SDS011;48003;52.084;5.224;2024-01-30T09:14:58;13.5;;;7.2;;
36833;SDS011;48003;52.084;5.224;2024-01-30T09:16:34;12.9;;;7.4;;
36833;SDS011;48003;52.084;5.224;2024-01-30T09:18:10;14.9;;;7.6;;
36833;SDS011;48003;52.084;5.224;2024-01-30T09:21:23;15.4;;;7.8;;
36833;SDS011;48003;52.084;5.224;2024-01-30T09:23:04;18.61;;;7.6;;
36833;SDS011;48003;52.084;5.224;2024-01-30T09:24:40;17.7;;;7.8;;
36833;SDS011;48003;52.084;5.224;2024-01-30T09:27:52;15.0;;;7.6;;
36833;SDS011;48003;52.084;5.224;2024-01-30T09:29:28;13.8;;;7.6;;
36833;SDS011;48003;52.084;5.224;2024-01-30T09:31:09;16.61;;;7.3;;
36833;SDS011;48003;52.084;5.224;2024-01-30T09:32:45;14.3;;;7.3;;
36833;SDS011;48003;52.084;5.224;2024-01-30T09:35:58;13.5;;;7.3;;
36833;SDS011;48003;52.084;5.224;2024-01-30T09:37:34;15.4;;;7.8;;
36833;SDS011;48003;52.084;5.224;2024-01-30T09:39:10;11.8;;;7.3;;
36833;SDS011;48003;52.084;5.224;2024-01-30T09:42:33;18.91;;;7.8;;
36833;SDS011;48003;52.084;5.224;2024-01-30T09:44:10;12.9;;;7.2;;
36833;SDS011;48003;52.084;5.224;2024-01-30T09:45:47;15.1;;;7.3;;
36833;SDS011;48003;52.084;5.224;2024-01-30T09:47:25;15.8;;;7.9;;
36833;SDS011;48003;52.084;5.224;2024-01-30T09:50:39;16.11;;;7.4;;
36833;SDS011;48003;52.084;5.224;2024-01-30T09:52:17;15.1;;;7.9;;
36833;SDS011;48003;52.084;5.224;2024-01-30T09:53:53;11.7;;;7.4;;
36833;SDS011;48003;52.084;5.224;2024-01-30T09:57:06;16.2;;;8.0;;
36833;SDS011;48003;52.084;5.224;2024-01-30T09:58:42;16.5;;;8.0;;
36833;SDS011;48003;52.084;5.224;2024-01-30T10:00:18;12.3;;;7.6;;
36833;SDS011;48003;52.084;5.224;2024-01-30T10:01:54;14.4;;;7.7;;
36833;SDS011;48003;52.084;5.224;2024-01-30T10:05:08;15.1;;;7.5;;
36833;SDS011;48003;52.084;5.224;2024-01-30T10:06:44;13.2;;;6.8;;
36833;SDS011;48003;52.084;5.224;2024-01-30T10:08:20;13.9;;;7.6;;
36833;SDS011;48003;52.084;5.224;2024-01-30T10:11:32;12.3;;;7.0;;
36833;SDS011;48003;52.084;5.224;2024-01-30T10:13:08;12.0;;;7.4;;
36833;SDS011;48003;52.084;5.224;2024-01-30T10:14:44;13.7;;;7.3;;
36833;SDS011;48003;52.084;5.224;2024-01-30T10:17:56;16.9;;;7.6;;
36833;SDS011;48003;52.084;5.224;2024-01-30T10:19:36;15.4;;;7.0;;
36833;SDS011;48003;52.084;5.224;2024-01-30T10:21:13;13.4;;;7.2;;
36833;SDS011;48003;52.084;5.224;2024-01-30T10:22:49;14.3;;;7.1;;
36833;SDS011;48003;52.084;5.224;2024-01-30T10:26:02;16.3;;;7.7;;
36833;SDS011;48003;52.084;5.224;2024-01-30T10:27:39;18.8;;;7.0;;
36833;SDS011;48003;52.084;5.224;2024-01-30T10:29:16;14.1;;;7.3;;
36833;SDS011;48003;52.084;5.224;2024-01-30T10:32:34;17.91;;;7.1;;
36833;SDS011;48003;52.084;5.224;2024-01-30T10:34:10;13.2;;;7.2;;
36833;SDS011;48003;52.084;5.224;2024-01-30T10:35:46;17.11;;;7.4;;
36833;SDS011;48003;52.084;5.224;2024-01-30T10:39:02;12.9;;;7.1;;
36833;SDS011;48003;52.084;5.224;2024-01-30T10:40:39;13.6;;;7.3;;
36833;SDS011;48003;52.084;5.224;2024-01-30T10:42:17;12.7;;;6.8;;
36833;SDS011;48003;52.084;5.224;2024-01-30T10:43:55;13.8;;;7.0;;
36833;SDS011;48003;52.084;5.224;2024-01-30T10:47:21;13.4;;;7.3;;
36833;SDS011;48003;52.084;5.224;2024-01-30T10:49:01;12.1;;;7.1;;
36833;SDS011;48003;52.084;5.224;2024-01-30T10:50:40;12.2;;;7.2;;
36833;SDS011;48003;52.084;5.224;2024-01-30T10:52:18;10.0;;;6.2;;
36833;SDS011;48003;52.084;5.224;2024-01-30T10:55:32;13.0;;;6.3;;
36833;SDS011;48003;52.084;5.224;2024-01-30T10:57:10;12.0;;;6.5;;
36833;SDS011;48003;52.084;5.224;2024-01-30T10:58:48;10.4;;;5.9;;
36833;SDS011;48003;52.084;5.224;2024-01-30T11:02:02;12.5;;;5.5;;
36833;SDS011;48003;52.084;5.224;2024-01-30T11:03:42;13.7;;;5.8;;
36833;SDS011;48003;52.084;5.224;2024-01-30T11:05:23;10.4;;;5.7;;
36833;SDS011;48003;52.084;5.224;2024-01-30T11:07:00;11.9;;;5.9;;
36833;SDS011;48003;52.084;5.224;2024-01-30T11:10:13;11.1;;;6.1;;
36833;SDS011;48003;52.084;5.224;2024-01-30T11:11:49;18.2;;;6.0;;
36833;SDS011;48003;52.084;5.224;2024-01-30T11:13:26;14.4;;;5.9;;
36833;SDS011;48003;52.084;5.224;2024-01-30T11:16:41;10.6;;;5.4;;
36833;SDS011;48003;52.084;5.224;2024-01-30T11:18:23;12.4;;;5.0;;
36833;SDS011;48003;52.084;5.224;2024-01-30T11:19:59;8.0;;;4.2;;
36833;SDS011;48003;52.084;5.224;2024-01-30T11:21:39;5.6;;;3.0;;
36833;SDS011;48003;52.084;5.224;2024-01-30T11:24:53;8.5;;;3.4;;
36833;SDS011;48003;52.084;5.224;2024-01-30T11:26:30;6.4;;;3.0;;
36833;SDS011;48003;52.084;5.224;2024-01-30T11:28:07;10.21;;;3.3;;
36833;SDS011;48003;52.084;5.224;2024-01-30T11:29:49;8.4;;;2.21;;
36833;SDS011;48003;52.084;5.224;2024-01-30T11:33:03;10.9;;;2.5;;
36833;SDS011;48003;52.084;5.224;2024-01-30T11:34:41;6.5;;;2.0;;
36833;SDS011;48003;52.084;5.224;2024-01-30T11:36:17;7.2;;;1.6;;
36833;SDS011;48003;52.084;5.224;2024-01-30T11:39:39;5.5;;;1.6;;
36833;SDS011;48003;52.084;5.224;2024-01-30T11:41:16;7.1;;;1.7;;
36833;SDS011;48003;52.084;5.224;2024-01-30T11:42:53;6.2;;;1.4;;
36833;SDS011;48003;52.084;5.224;2024-01-30T11:44:30;5.5;;;1.6;;
36833;SDS011;48003;52.084;5.224;2024-01-30T11:47:43;9.4;;;1.7;;
36833;SDS011;48003;52.084;5.224;2024-01-30T11:49:19;5.3;;;1.5;;
36833;SDS011;48003;52.084;5.224;2024-01-30T11:50:55;7.7;;;1.5;;
36833;SDS011;48003;52.084;5.224;2024-01-30T11:54:09;3.8;;;1.3;;
36833;SDS011;48003;52.084;5.224;2024-01-30T11:55:50;5.0;;;1.2;;
36833;SDS011;48003;52.084;5.224;2024-01-30T11:57:27;5.11;;;1.4;;
36833;SDS011;48003;52.084;5.224;2024-01-30T11:59:03;4.7;;;1.4;;
36833;SDS011;48003;52.084;5.224;2024-01-30T12:02:15;6.0;;;1.3;;
36833;SDS011;48003;52.084;5.224;2024-01-30T12:03:51;7.9;;;1.6;;
36833;SDS011;48003;52.084;5.224;2024-01-30T12:05:27;6.5;;;1.6;;
36833;SDS011;48003;52.084;5.224;2024-01-30T12:08:40;3.8;;;1.6;;
36833;SDS011;48003;52.084;5.224;2024-01-30T12:10:17;4.2;;;1.5;;
36833;SDS011;48003;52.084;5.224;2024-01-30T12:11:54;4.61;;;1.8;;
36833;SDS011;48003;52.084;5.224;2024-01-30T12:15:06;4.61;;;1.9;;
36833;SDS011;48003;52.084;5.224;2024-01-30T12:16:43;5.11;;;2.0;;
36833;SDS011;48003;52.084;5.224;2024-01-30T12:18:19;6.9;;;2.31;;
36833;SDS011;48003;52.084;5.224;2024-01-30T12:21:40;8.6;;;2.4;;
36833;SDS011;48003;52.084;5.224;2024-01-30T12:23:17;8.0;;;2.4;;
36833;SDS011;48003;52.084;5.224;2024-01-30T12:24:53;6.8;;;2.31;;
36833;SDS011;48003;52.084;5.224;2024-01-30T12:26:29;9.21;;;2.5;;
36833;SDS011;48003;52.084;5.224;2024-01-30T12:29:41;10.5;;;2.4;;
36833;SDS011;48003;52.084;5.224;2024-01-30T12:31:17;7.2;;;2.31;;
36833;SDS011;48003;52.084;5.224;2024-01-30T12:32:53;6.9;;;1.9;;
36833;SDS011;48003;52.084;5.224;2024-01-30T12:36:05;8.71;;;2.0;;
36833;SDS011;48003;52.084;5.224;2024-01-30T12:37:42;7.6;;;2.1;;
36833;SDS011;48003;52.084;5.224;2024-01-30T12:39:20;6.2;;;1.6;;
36833;SDS011;48003;52.084;5.224;2024-01-30T12:40:56;7.1;;;1.9;;
36833;SDS011;48003;52.084;5.224;2024-01-30T12:44:08;6.8;;;2.21;;